MUGM/NBW METAR and TAF weather

Enter ICAO airport designator
Station Type Date Time Source
MUGM METAR 2020/04/05 18:56 UTC NOAA

MUGM 051856Z 15012KT 10SM FEW035 SCT250 29/20 A2995 RMK SLP141 T02890200


Station Type Date Time Source
MUGM Decoded METAR 2020/04/05 18:56 UTC NOAA

GUANTANAMO BAY, CUBA NAVAL, CU, Cuba (MUGM) 19-55N 075-12W 23M
Apr 05, 2020 - 02:56 PM EDT / 2020.04.05 1856 UTC
Wind: from the SSE (150 degrees) at 14 MPH (12 KT):0
Visibility: 10 mile(s):0
Sky conditions: partly cloudy
Temperature: 84.0 F (28.9 C)
Dew Point: 68.0 F (20.0 C)
Relative Humidity: 58%
Pressure (altimeter): 29.95 in. Hg (1014 hPa)
ob: MUGM 051856Z 15012KT 10SM FEW035 SCT250 29/20 A2995 RMK SLP141 T02890200
cycle: 19

Station Type Date Time Source
MUGM TAF 2020/04/05 15:09 UTC NOAA

TAF TAF MUGM 0515/0615 14010KT 9999 SKC QNH2995INS
TEMPO 0518/0521 14015G23KT
FM060300 34005KT 9999 FEW030 QNH2994INS T29/0519Z T22/0507Z FN00216

Example: see airport list